createdAt,value
2023-03-12T00:01:54.738Z,58.89
2023-03-12T00:04:57.305Z,60.21
2023-03-12T00:08:00.099Z,60.49
2023-03-12T00:11:07.052Z,61.42
2023-03-12T00:14:09.647Z,61.16
2023-03-12T00:17:12.230Z,61.78
2023-03-12T00:20:15.420Z,62.78
2023-03-12T00:23:18.010Z,63.11
2023-03-12T00:26:21.251Z,64.15
2023-03-12T00:29:23.900Z,64.43
2023-03-12T00:32:26.518Z,65.48
2023-03-12T00:35:29.172Z,65.17
2023-03-12T00:38:31.786Z,65.35
2023-03-12T00:41:34.549Z,65.84
2023-03-12T00:44:37.149Z,64.90
2023-03-12T00:47:39.868Z,63.32
2023-03-12T00:50:42.962Z,63.06
2023-03-12T00:53:45.929Z,63.45
2023-03-12T00:56:48.743Z,61.76
2023-03-12T00:59:51.507Z,62.31
2023-03-12T01:02:54.119Z,61.86
2023-03-12T01:05:56.853Z,60.94
2023-03-12T01:09:00.947Z,61.02
2023-03-12T01:12:03.851Z,61.48
2023-03-12T01:15:06.968Z,61.10
2023-03-12T01:18:09.627Z,60.76
2023-03-12T01:21:12.576Z,60.27
2023-03-12T01:24:15.258Z,59.76
2023-03-12T01:27:20.515Z,59.72
2023-03-12T01:30:23.829Z,59.03
2023-03-12T01:33:26.473Z,57.39
2023-03-12T01:36:30.789Z,57.28
2023-03-12T01:39:33.430Z,57.18
2023-03-12T01:42:35.972Z,56.85
2023-03-12T01:45:59.527Z,56.80
2023-03-12T01:49:14.347Z,56.87
2023-03-12T01:52:19.158Z,56.09
2023-03-12T01:55:25.644Z,56.65
2023-03-12T01:58:30.492Z,56.45
2023-03-12T02:01:33.952Z,56.22
2023-03-12T02:04:38.871Z,56.12
2023-03-12T02:07:41.719Z,55.02
2023-03-12T02:10:45.418Z,54.29
2023-03-12T02:13:48.482Z,55.85
2023-03-12T02:16:52.051Z,54.31
2023-03-12T02:20:17.563Z,56.73
2023-03-12T02:23:29.837Z,55.81
2023-03-12T02:26:35.548Z,53.35
2023-03-12T02:29:43.502Z,55.56
2023-03-12T02:32:48.725Z,55.22
2023-03-12T02:35:52.459Z,55.48
2023-03-12T02:38:56.073Z,56.20
2023-03-12T02:42:00.568Z,57.07
2023-03-12T02:45:04.259Z,56.70
2023-03-12T02:48:08.976Z,57.24
2023-03-12T02:51:11.708Z,57.86
2023-03-12T02:54:16.671Z,57.02
2023-03-12T02:57:19.462Z,57.67
2023-03-12T03:00:22.245Z,57.06
2023-03-12T03:03:27.994Z,58.42
2023-03-12T03:06:31.414Z,58.74
2023-03-12T03:09:34.070Z,59.83
2023-03-12T03:12:37.506Z,60.65
2023-03-12T03:15:41.264Z,62.44
2023-03-12T03:18:43.939Z,62.57
2023-03-12T03:21:46.928Z,64.20
2023-03-12T03:24:49.710Z,65.28
2023-03-12T03:27:52.350Z,68.25
2023-03-12T03:30:58.385Z,65.65
2023-03-12T03:34:01.208Z,67.30
2023-03-12T03:37:04.980Z,67.48
2023-03-12T03:40:12.308Z,65.55
2023-03-12T03:43:15.618Z,66.96
2023-03-12T03:46:18.916Z,66.82
2023-03-12T03:49:26.699Z,67.88
2023-03-12T03:52:29.667Z,68.81
2023-03-12T03:55:35.647Z,69.51
2023-03-12T03:58:38.798Z,70.99
2023-03-12T04:01:41.853Z,69.82
2023-03-12T04:04:45.039Z,71.09
2023-03-12T04:07:47.902Z,71.41
2023-03-12T04:10:53.983Z,71.54
2023-03-12T04:13:58.242Z,71.79
2023-03-12T04:17:04.282Z,71.41
2023-03-12T04:20:09.481Z,72.18
2023-03-12T04:23:12.536Z,71.72
2023-03-12T04:26:15.506Z,70.58
2023-03-12T04:29:19.235Z,70.10
2023-03-12T04:32:22.171Z,70.85
2023-03-12T04:35:25.197Z,70.55
2023-03-12T04:38:28.691Z,68.83
2023-03-12T04:41:32.086Z,68.83
2023-03-12T04:44:45.235Z,70.35
2023-03-12T04:47:48.238Z,70.91
2023-03-12T04:50:51.883Z,71.28
2023-03-12T04:53:55.023Z,70.84
2023-03-12T04:56:57.813Z,69.57
2023-03-12T05:00:02.361Z,68.01
2023-03-12T05:03:08.019Z,66.06
2023-03-12T05:06:10.932Z,67.30
2023-03-12T05:09:13.645Z,64.75
2023-03-12T05:12:17.462Z,66.41
2023-03-12T05:15:20.668Z,67.42
2023-03-12T05:18:23.620Z,66.84
2023-03-12T05:21:26.507Z,69.35
2023-03-12T05:24:31.402Z,72.08
2023-03-12T05:27:35.223Z,70.36
2023-03-12T05:30:39.850Z,69.97
2023-03-12T05:33:43.178Z,70.69
2023-03-12T05:36:45.965Z,66.44
2023-03-12T05:39:54.394Z,62.25
2023-03-12T05:42:57.211Z,59.36
2023-03-12T05:46:04.073Z,56.15
2023-03-12T05:49:08.623Z,52.84
2023-03-12T05:52:11.999Z,51.82
2023-03-12T05:55:14.666Z,52.00
2023-03-12T05:58:18.406Z,52.17
2023-03-12T06:01:24.232Z,51.42
2023-03-12T06:04:28.192Z,53.17
2023-03-12T06:07:30.822Z,48.06
2023-03-12T06:10:33.838Z,46.89
2023-03-12T06:13:37.219Z,45.50
2023-03-12T06:16:39.867Z,42.63
2023-03-12T06:19:44.053Z,40.12
2023-03-12T06:22:46.699Z,37.38
2023-03-12T06:25:50.279Z,36.15
2023-03-12T06:28:53.777Z,35.01
2023-03-12T06:31:56.459Z,34.47
2023-03-12T06:35:00.886Z,34.50
2023-03-12T06:38:03.475Z,34.21
2023-03-12T06:41:11.742Z,34.41
2023-03-12T06:44:14.415Z,33.34
2023-03-12T06:47:17.754Z,33.07
2023-03-12T06:50:20.652Z,31.22
2023-03-12T06:53:25.348Z,30.86
2023-03-12T06:56:29.601Z,29.52
2023-03-12T06:59:32.278Z,31.42
2023-03-12T07:02:34.849Z,34.12
2023-03-12T07:05:37.446Z,35.80
2023-03-12T07:08:40.067Z,33.41
2023-03-12T07:11:42.595Z,33.13
2023-03-12T07:14:45.169Z,31.93
2023-03-12T07:17:47.746Z,29.64
2023-03-12T07:20:50.313Z,27.75
2023-03-12T07:23:53.395Z,29.37
2023-03-12T07:26:56.080Z,30.16
2023-03-12T07:29:58.846Z,29.57
2023-03-12T07:33:10.503Z,28.76
2023-03-12T07:36:13.578Z,28.48
2023-03-12T07:39:16.271Z,29.45
2023-03-12T07:42:18.928Z,29.67
2023-03-12T07:45:23.982Z,28.67
2023-03-12T07:48:26.875Z,28.29
2023-03-12T07:51:29.592Z,28.75
2023-03-12T07:54:32.513Z,29.73
2023-03-12T07:57:35.163Z,30.13
2023-03-12T08:00:37.748Z,29.73
2023-03-12T08:03:40.744Z,30.36
2023-03-12T08:06:43.592Z,29.56
2023-03-12T08:09:49.517Z,31.40
2023-03-12T08:12:52.348Z,30.85
2023-03-12T08:15:55.043Z,30.00
2023-03-12T08:18:57.777Z,30.46
2023-03-12T08:22:00.446Z,32.08
2023-03-12T08:25:04.123Z,31.52
2023-03-12T08:28:06.716Z,30.06
2023-03-12T08:31:09.699Z,29.77
2023-03-12T08:34:13.023Z,28.95
2023-03-12T08:37:16.200Z,29.70
2023-03-12T08:40:20.387Z,29.87
2023-03-12T08:43:23.003Z,28.41
2023-03-12T08:46:25.688Z,30.66
2023-03-12T08:49:28.932Z,29.89
2023-03-12T08:52:31.794Z,32.27
2023-03-12T08:55:34.414Z,31.24
2023-03-12T08:58:37.426Z,30.01
2023-03-12T09:01:43.431Z,29.78
2023-03-12T09:04:50.272Z,30.21
2023-03-12T09:07:52.891Z,28.59
2023-03-12T09:10:57.583Z,29.70
2023-03-12T09:14:49.822Z,30.00
2023-03-12T09:17:24.076Z,29.63
2023-03-12T09:20:26.955Z,28.37
2023-03-12T09:23:29.653Z,29.92
2023-03-12T09:26:32.186Z,27.56
2023-03-12T09:29:41.384Z,26.75
2023-03-12T09:32:49.499Z,28.52
2023-03-12T09:35:59.108Z,28.65
2023-03-12T09:39:02.555Z,26.21
2023-03-12T09:42:12.600Z,24.00
2023-03-12T09:45:30.634Z,27.04
2023-03-12T09:48:35.848Z,26.20
2023-03-12T09:51:44.484Z,26.75
2023-03-12T09:55:05.631Z,27.73
2023-03-12T09:58:28.526Z,26.43
2023-03-12T10:01:49.172Z,27.00
2023-03-12T10:05:00.291Z,26.56
2023-03-12T10:08:24.392Z,26.16
2023-03-12T10:11:52.350Z,26.93
2023-03-12T10:15:08.179Z,24.94
2023-03-12T10:18:21.685Z,23.02
2023-03-12T10:21:27.283Z,23.29
2023-03-12T10:25:14.434Z,23.77
2023-03-12T10:28:18.763Z,23.04
2023-03-12T10:31:36.349Z,21.57
2023-03-12T10:34:50.380Z,21.93
2023-03-12T10:38:03.424Z,20.43
2023-03-12T10:41:15.345Z,23.66
2023-03-12T10:44:23.949Z,21.65
2023-03-12T10:47:38.573Z,21.18
2023-03-12T10:50:41.671Z,21.49
2023-03-12T10:53:48.149Z,18.99
2023-03-12T10:56:51.595Z,19.89
2023-03-12T11:00:08.823Z,22.33
2023-03-12T11:03:21.731Z,23.86
2023-03-12T11:06:27.910Z,25.59
2023-03-12T11:09:30.909Z,24.40
2023-03-12T11:12:36.635Z,24.28
2023-03-12T11:15:41.752Z,25.36
2023-03-12T11:19:05.061Z,24.25
2023-03-12T11:22:11.819Z,25.49
2023-03-12T11:25:26.639Z,23.14
2023-03-12T11:28:40.744Z,23.09
2023-03-12T11:32:07.515Z,23.81
2023-03-12T11:35:12.216Z,26.92
2023-03-12T11:38:20.916Z,25.46
2023-03-12T11:41:38.498Z,27.41
2023-03-12T11:45:04.180Z,26.75
2023-03-12T11:48:28.946Z,26.59
2023-03-12T11:51:46.500Z,27.12
2023-03-12T11:54:57.902Z,27.72
2023-03-12T11:58:34.294Z,28.27
2023-03-12T12:01:39.756Z,25.46
2023-03-12T12:04:44.964Z,26.83
2023-03-12T12:08:24.578Z,27.77
2023-03-12T12:11:48.194Z,25.78
2023-03-12T12:15:06.695Z,26.72
2023-03-12T12:18:15.142Z,30.55
2023-03-12T12:21:17.806Z,27.43
2023-03-12T12:24:39.716Z,27.45
2023-03-12T12:28:03.237Z,26.21
2023-03-12T12:31:08.598Z,31.44
2023-03-12T12:34:41.219Z,30.95
2023-03-12T12:37:48.818Z,31.83
2023-03-12T12:40:55.984Z,29.10
2023-03-12T12:44:03.148Z,31.19
2023-03-12T12:47:13.250Z,32.53
2023-03-12T12:50:24.538Z,32.50
2023-03-12T12:53:37.592Z,31.36
2023-03-12T12:56:53.479Z,30.63
2023-03-12T13:00:07.898Z,28.96
2023-03-12T13:03:20.992Z,31.41
2023-03-12T13:06:29.390Z,28.65
2023-03-12T13:09:57.180Z,29.75
2023-03-12T13:13:20.952Z,30.48
2023-03-12T13:16:43.963Z,29.89
2023-03-12T13:19:58.959Z,30.51
2023-03-12T13:23:19.716Z,29.31
2023-03-12T13:26:40.744Z,30.56
2023-03-12T13:29:43.745Z,30.69
2023-03-12T13:32:49.430Z,29.98
2023-03-12T13:36:12.217Z,30.53
2023-03-12T13:39:15.155Z,29.11
2023-03-12T13:42:23.727Z,28.95
2023-03-12T13:45:30.635Z,28.98
2023-03-12T13:48:36.165Z,31.64
2023-03-12T13:51:53.839Z,30.58
2023-03-12T13:55:03.348Z,30.15
2023-03-12T13:58:23.695Z,30.57
2023-03-12T14:01:31.093Z,29.29
2023-03-12T14:04:41.047Z,28.82
2023-03-12T14:07:49.376Z,31.12
2023-03-12T14:11:36.106Z,32.32
2023-03-12T14:14:50.935Z,31.94
2023-03-12T14:18:01.240Z,31.95
2023-03-12T14:21:10.261Z,31.77
2023-03-12T14:24:24.135Z,32.04
2023-03-12T14:27:30.819Z,33.11
2023-03-12T14:30:49.637Z,34.99
2023-03-12T14:34:24.474Z,37.49
2023-03-12T14:37:40.287Z,35.67
2023-03-12T14:40:48.672Z,34.75
2023-03-12T14:43:54.525Z,36.08
2023-03-12T14:47:12.556Z,34.25
2023-03-12T14:50:43.865Z,33.10
2023-03-12T14:53:47.067Z,34.46
2023-03-12T14:56:50.264Z,32.78
2023-03-12T15:00:02.288Z,33.25
2023-03-12T15:03:12.556Z,33.18
2023-03-12T15:06:20.683Z,33.20
2023-03-12T15:09:28.602Z,34.18
2023-03-12T15:12:37.272Z,34.67
2023-03-12T15:15:43.153Z,32.74
2023-03-12T15:18:47.635Z,34.66
2023-03-12T15:21:51.165Z,35.95
2023-03-12T15:24:54.507Z,35.41
2023-03-12T15:28:07.739Z,36.10
2023-03-12T15:31:16.559Z,36.17
2023-03-12T15:34:35.877Z,37.00
2023-03-12T15:37:41.111Z,36.76
2023-03-12T15:40:56.228Z,37.76
2023-03-12T15:44:00.624Z,37.67
2023-03-12T15:47:11.371Z,38.71
2023-03-12T15:50:30.136Z,39.24
2023-03-12T15:53:34.737Z,39.00
2023-03-12T15:56:37.663Z,40.42
2023-03-12T15:59:40.387Z,40.81
2023-03-12T16:02:49.424Z,41.91
2023-03-12T16:05:53.562Z,41.79
2023-03-12T16:08:59.383Z,43.11
2023-03-12T16:12:02.777Z,43.08
2023-03-12T16:15:05.925Z,43.22
2023-03-12T16:18:20.388Z,44.81
2023-03-12T16:21:24.059Z,44.62
2023-03-12T16:24:27.212Z,45.06
2023-03-12T16:27:32.761Z,44.10
2023-03-12T16:30:36.943Z,44.61
2023-03-12T16:33:40.388Z,44.70
2023-03-12T16:36:43.223Z,44.48
2023-03-12T16:39:46.558Z,44.62
2023-03-12T16:42:54.098Z,45.15
2023-03-12T16:45:57.968Z,45.90
2023-03-12T16:49:01.146Z,48.66
2023-03-12T16:52:17.220Z,49.03
2023-03-12T16:55:22.617Z,48.93
2023-03-12T16:58:27.382Z,49.18
2023-03-12T17:01:30.308Z,50.71
2023-03-12T17:04:33.289Z,52.21
2023-03-12T17:07:35.918Z,52.20
2023-03-12T17:10:39.031Z,50.13
2023-03-12T17:13:41.811Z,50.83
2023-03-12T17:16:45.473Z,46.03
2023-03-12T17:19:48.503Z,45.56
2023-03-12T17:22:51.625Z,49.44
2023-03-12T17:25:54.510Z,49.19
2023-03-12T17:28:57.618Z,50.48
2023-03-12T17:32:00.427Z,50.45
2023-03-12T17:35:06.714Z,48.51
2023-03-12T17:38:10.068Z,51.45
2023-03-12T17:41:25.468Z,51.18
2023-03-12T17:44:34.623Z,50.65
2023-03-12T17:47:37.989Z,53.33
2023-03-12T17:50:44.106Z,53.43
2023-03-12T17:53:48.096Z,52.54
2023-03-12T17:56:50.983Z,54.25
2023-03-12T17:59:54.002Z,52.15
2023-03-12T18:02:56.928Z,53.12
2023-03-12T18:06:00.261Z,51.01
2023-03-12T18:09:03.802Z,51.74
2023-03-12T18:12:07.047Z,50.91
2023-03-12T18:15:13.280Z,51.76
2023-03-12T18:18:16.232Z,54.83
2023-03-12T18:21:19.882Z,53.67
2023-03-12T18:24:22.740Z,51.40
2023-03-12T18:27:25.685Z,52.72
2023-03-12T18:30:28.700Z,51.71
2023-03-12T18:33:31.767Z,54.37
2023-03-12T18:36:34.681Z,53.09
2023-03-12T18:39:37.258Z,53.94
2023-03-12T18:42:44.498Z,56.55
2023-03-12T18:45:49.208Z,55.76
2023-03-12T18:48:53.514Z,56.78
2023-03-12T18:51:56.594Z,57.50
2023-03-12T18:54:59.170Z,57.36
2023-03-12T18:58:02.036Z,55.18
2023-03-12T19:01:05.472Z,53.97
2023-03-12T19:04:11.419Z,57.34
2023-03-12T19:07:14.443Z,55.46
2023-03-12T19:10:17.514Z,57.09
2023-03-12T19:13:20.176Z,58.34
2023-03-12T19:16:23.448Z,58.13
2023-03-12T19:19:26.340Z,59.54
2023-03-12T19:22:29.430Z,59.99
2023-03-12T19:25:32.877Z,58.54
2023-03-12T19:28:36.862Z,58.37
2023-03-12T19:31:39.603Z,60.74
2023-03-12T19:34:42.602Z,58.92
2023-03-12T19:37:45.535Z,58.64
2023-03-12T19:40:58.736Z,58.91
2023-03-12T19:44:01.819Z,61.57
2023-03-12T19:47:07.030Z,60.29
2023-03-12T19:50:11.585Z,60.81
2023-03-12T19:53:15.325Z,63.18
2023-03-12T19:56:18.548Z,61.21
2023-03-12T19:59:21.559Z,61.25
2023-03-12T20:02:24.508Z,61.30
2023-03-12T20:05:27.696Z,60.26
2023-03-12T20:08:30.758Z,60.74
2023-03-12T20:11:35.777Z,63.56
2023-03-12T20:14:39.460Z,60.54
2023-03-12T20:17:43.703Z,59.55
2023-03-12T20:20:48.218Z,62.46
2023-03-12T20:23:52.180Z,60.71
2023-03-12T20:26:55.462Z,59.15
2023-03-12T20:29:59.895Z,60.52
2023-03-12T20:33:03.068Z,60.70
2023-03-12T20:36:08.655Z,61.98
2023-03-12T20:39:12.695Z,62.70
2023-03-12T20:42:15.470Z,62.05
2023-03-12T20:45:18.135Z,63.17
2023-03-12T20:48:21.073Z,62.95
2023-03-12T20:51:24.910Z,64.51
2023-03-12T20:54:27.834Z,64.10
2023-03-12T20:57:30.763Z,66.15
2023-03-12T21:00:33.675Z,65.77
2023-03-12T21:03:36.628Z,66.14
2023-03-12T21:06:39.446Z,66.87
2023-03-12T21:09:42.747Z,66.81
2023-03-12T21:12:45.663Z,66.84
2023-03-12T21:15:49.047Z,63.58
2023-03-12T21:18:56.602Z,61.80
2023-03-12T21:21:59.783Z,62.64
2023-03-12T21:25:03.009Z,60.88
2023-03-12T21:28:08.379Z,61.55
2023-03-12T21:31:13.794Z,63.27
2023-03-12T21:34:16.648Z,64.86
2023-03-12T21:37:19.864Z,65.33
2023-03-12T21:40:24.335Z,65.75
2023-03-12T21:43:29.149Z,64.42
2023-03-12T21:46:31.853Z,63.14
2023-03-12T21:49:35.562Z,62.39
2023-03-12T21:52:42.993Z,63.43
2023-03-12T21:55:57.687Z,62.54
2023-03-12T21:59:00.971Z,62.38
2023-03-12T22:02:03.899Z,62.51
2023-03-12T22:05:07.719Z,62.79
2023-03-12T22:08:10.326Z,63.07
2023-03-12T22:11:13.875Z,62.60
2023-03-12T22:14:16.438Z,62.59
2023-03-12T22:17:19.109Z,62.31
2023-03-12T22:20:21.688Z,61.48
2023-03-12T22:23:25.145Z,62.09
2023-03-12T22:26:28.137Z,63.01
2023-03-12T22:29:30.755Z,64.05
2023-03-12T22:32:33.461Z,63.14
2023-03-12T22:35:43.761Z,62.09
2023-03-12T22:38:47.823Z,62.19
2023-03-12T22:41:50.797Z,62.29
2023-03-12T22:44:53.386Z,64.42
2023-03-12T22:47:56.019Z,63.30
2023-03-12T22:51:00.118Z,61.60
2023-03-12T22:54:02.909Z,63.43
2023-03-12T22:57:05.491Z,62.46
2023-03-12T23:00:12.734Z,61.22
2023-03-12T23:03:15.426Z,64.06
2023-03-12T23:06:21.015Z,63.23
2023-03-12T23:09:23.835Z,62.96
2023-03-12T23:12:26.435Z,61.93
2023-03-12T23:15:40.532Z,64.67
2023-03-12T23:18:44.936Z,62.65
2023-03-12T23:21:47.494Z,62.36
2023-03-12T23:24:50.419Z,62.02
2023-03-12T23:27:53.050Z,60.86
2023-03-12T23:31:01.406Z,59.79
2023-03-12T23:34:04.787Z,59.48
2023-03-12T23:37:07.663Z,59.42
2023-03-12T23:40:11.337Z,56.38
2023-03-12T23:43:15.252Z,58.90
2023-03-12T23:46:18.836Z,58.55
2023-03-12T23:49:21.615Z,57.11
2023-03-12T23:52:26.862Z,57.13
2023-03-12T23:55:29.459Z,58.38
2023-03-12T23:58:32.908Z,57.45
